sensor_id;sensor_type;location;lat;lon;timestamp;temperature;humidity
54680;DHT22;40578;53.178;5.846;2024-03-07T00:02:20;4.60;99.90
54680;DHT22;40578;53.178;5.846;2024-03-07T00:04:46;4.40;99.90
54680;DHT22;40578;53.178;5.846;2024-03-07T00:07:12;4.40;99.90
54680;DHT22;40578;53.178;5.846;2024-03-07T00:09:37;4.40;99.90
54680;DHT22;40578;53.178;5.846;2024-03-07T00:12:04;4.40;99.90
54680;DHT22;40578;53.178;5.846;2024-03-07T00:14:34;4.40;99.90
54680;DHT22;40578;53.178;5.846;2024-03-07T00:17:01;4.60;99.90
54680;DHT22;40578;53.178;5.846;2024-03-07T00:19:28;4.60;99.90
54680;DHT22;40578;53.178;5.846;2024-03-07T00:21:58;4.40;99.90
54680;DHT22;40578;53.178;5.846;2024-03-07T00:24:24;4.30;99.90
54680;DHT22;40578;53.178;5.846;2024-03-07T00:26:50;4.30;99.90
54680;DHT22;40578;53.178;5.846;2024-03-07T00:29:17;4.40;99.90
54680;DHT22;40578;53.178;5.846;2024-03-07T00:31:44;4.60;99.90
54680;DHT22;40578;53.178;5.846;2024-03-07T00:34:14;4.50;99.90
54680;DHT22;40578;53.178;5.846;2024-03-07T00:36:45;5.10;99.90
54680;DHT22;40578;53.178;5.846;2024-03-07T00:39:12;4.50;99.90
54680;DHT22;40578;53.178;5.846;2024-03-07T00:41:41;4.40;99.90
54680;DHT22;40578;53.178;5.846;2024-03-07T00:44:07;4.50;99.90
54680;DHT22;40578;53.178;5.846;2024-03-07T00:46:37;4.30;99.90
54680;DHT22;40578;53.178;5.846;2024-03-07T00:49:03;4.50;99.90
54680;DHT22;40578;53.178;5.846;2024-03-07T00:51:29;4.30;99.90
54680;DHT22;40578;53.178;5.846;2024-03-07T00:53:55;4.30;99.90
54680;DHT22;40578;53.178;5.846;2024-03-07T00:56:21;4.10;99.90
54680;DHT22;40578;53.178;5.846;2024-03-07T00:58:51;4.30;99.90
54680;DHT22;40578;53.178;5.846;2024-03-07T01:01:17;4.20;99.90
54680;DHT22;40578;53.178;5.846;2024-03-07T01:03:44;4.20;99.90
54680;DHT22;40578;53.178;5.846;2024-03-07T01:06:10;4.10;99.90
54680;DHT22;40578;53.178;5.846;2024-03-07T01:08:36;4.20;99.90
54680;DHT22;40578;53.178;5.846;2024-03-07T01:11:03;3.90;99.90
54680;DHT22;40578;53.178;5.846;2024-03-07T01:13:41;4.00;99.90
54680;DHT22;40578;53.178;5.846;2024-03-07T01:16:07;4.10;99.90
54680;DHT22;40578;53.178;5.846;2024-03-07T01:18:33;4.00;99.90
54680;DHT22;40578;53.178;5.846;2024-03-07T01:21:00;3.90;99.90
54680;DHT22;40578;53.178;5.846;2024-03-07T01:23:25;4.20;99.90
54680;DHT22;40578;53.178;5.846;2024-03-07T01:25:51;4.00;99.90
54680;DHT22;40578;53.178;5.846;2024-03-07T01:28:17;3.90;99.90
54680;DHT22;40578;53.178;5.846;2024-03-07T01:30:43;3.90;99.90
54680;DHT22;40578;53.178;5.846;2024-03-07T01:33:09;3.80;99.90
54680;DHT22;40578;53.178;5.846;2024-03-07T01:35:35;3.70;99.90
54680;DHT22;40578;53.178;5.846;2024-03-07T01:38:01;3.80;99.90
54680;DHT22;40578;53.178;5.846;2024-03-07T01:40:28;3.60;99.90
54680;DHT22;40578;53.178;5.846;2024-03-07T01:42:54;3.60;99.90
54680;DHT22;40578;53.178;5.846;2024-03-07T01:45:20;3.60;99.90
54680;DHT22;40578;53.178;5.846;2024-03-07T01:47:46;3.90;99.90
54680;DHT22;40578;53.178;5.846;2024-03-07T01:50:12;3.60;99.90
54680;DHT22;40578;53.178;5.846;2024-03-07T01:52:40;3.70;99.90
54680;DHT22;40578;53.178;5.846;2024-03-07T01:55:08;3.70;99.90
54680;DHT22;40578;53.178;5.846;2024-03-07T01:57:36;3.70;99.90
54680;DHT22;40578;53.178;5.846;2024-03-07T02:00:02;3.40;99.90
54680;DHT22;40578;53.178;5.846;2024-03-07T02:02:32;3.40;99.90
54680;DHT22;40578;53.178;5.846;2024-03-07T02:04:58;3.50;99.90
54680;DHT22;40578;53.178;5.846;2024-03-07T02:07:24;3.40;99.90
54680;DHT22;40578;53.178;5.846;2024-03-07T02:09:49;3.30;99.90
54680;DHT22;40578;53.178;5.846;2024-03-07T02:12:15;3.50;99.90
54680;DHT22;40578;53.178;5.846;2024-03-07T02:14:41;3.20;99.90
54680;DHT22;40578;53.178;5.846;2024-03-07T02:17:07;4.30;99.90
54680;DHT22;40578;53.178;5.846;2024-03-07T02:19:32;3.20;99.90
54680;DHT22;40578;53.178;5.846;2024-03-07T02:21:58;3.60;99.90
54680;DHT22;40578;53.178;5.846;2024-03-07T02:24:25;3.10;99.90
54680;DHT22;40578;53.178;5.846;2024-03-07T02:26:50;3.30;99.90
54680;DHT22;40578;53.178;5.846;2024-03-07T02:29:17;3.30;99.90
54680;DHT22;40578;53.178;5.846;2024-03-07T02:31:45;3.20;99.90
54680;DHT22;40578;53.178;5.846;2024-03-07T02:34:10;3.10;99.90
54680;DHT22;40578;53.178;5.846;2024-03-07T02:36:36;3.30;99.90
54680;DHT22;40578;53.178;5.846;2024-03-07T02:39:02;4.20;99.90
54680;DHT22;40578;53.178;5.846;2024-03-07T02:41:28;3.10;99.90
54680;DHT22;40578;53.178;5.846;2024-03-07T02:43:54;3.20;99.90
54680;DHT22;40578;53.178;5.846;2024-03-07T02:46:19;3.00;99.90
54680;DHT22;40578;53.178;5.846;2024-03-07T02:48:45;3.00;99.90
54680;DHT22;40578;53.178;5.846;2024-03-07T02:51:11;3.00;99.90
54680;DHT22;40578;53.178;5.846;2024-03-07T02:53:37;2.90;99.90
54680;DHT22;40578;53.178;5.846;2024-03-07T02:56:04;3.00;99.90
54680;DHT22;40578;53.178;5.846;2024-03-07T02:58:33;2.90;99.90
54680;DHT22;40578;53.178;5.846;2024-03-07T03:00:59;2.90;99.90
54680;DHT22;40578;53.178;5.846;2024-03-07T03:03:29;2.90;99.90
54680;DHT22;40578;53.178;5.846;2024-03-07T03:05:58;3.00;99.90
54680;DHT22;40578;53.178;5.846;2024-03-07T03:08:25;2.80;99.90
54680;DHT22;40578;53.178;5.846;2024-03-07T03:10:54;2.80;99.90
54680;DHT22;40578;53.178;5.846;2024-03-07T03:13:20;2.90;99.90
54680;DHT22;40578;53.178;5.846;2024-03-07T03:15:46;2.90;99.90
54680;DHT22;40578;53.178;5.846;2024-03-07T03:18:12;2.70;99.90
54680;DHT22;40578;53.178;5.846;2024-03-07T03:20:38;2.90;99.90
54680;DHT22;40578;53.178;5.846;2024-03-07T03:23:05;2.90;99.90
54680;DHT22;40578;53.178;5.846;2024-03-07T03:25:31;2.80;99.90
54680;DHT22;40578;53.178;5.846;2024-03-07T03:28:01;2.70;99.90
54680;DHT22;40578;53.178;5.846;2024-03-07T03:30:27;2.60;99.90
54680;DHT22;40578;53.178;5.846;2024-03-07T03:32:52;2.80;99.90
54680;DHT22;40578;53.178;5.846;2024-03-07T03:35:18;3.00;99.90
54680;DHT22;40578;53.178;5.846;2024-03-07T03:37:45;2.80;99.90
54680;DHT22;40578;53.178;5.846;2024-03-07T03:40:11;2.80;99.90
54680;DHT22;40578;53.178;5.846;2024-03-07T03:42:42;2.80;99.90
54680;DHT22;40578;53.178;5.846;2024-03-07T03:45:09;2.80;99.90
54680;DHT22;40578;53.178;5.846;2024-03-07T03:47:40;2.60;99.90
54680;DHT22;40578;53.178;5.846;2024-03-07T03:50:08;2.80;99.90
54680;DHT22;40578;53.178;5.846;2024-03-07T03:52:34;2.70;99.90
54680;DHT22;40578;53.178;5.846;2024-03-07T03:55:04;2.70;99.90
54680;DHT22;40578;53.178;5.846;2024-03-07T03:57:33;2.50;99.90
54680;DHT22;40578;53.178;5.846;2024-03-07T03:59:59;2.60;99.90
54680;DHT22;40578;53.178;5.846;2024-03-07T04:02:25;2.60;99.90
54680;DHT22;40578;53.178;5.846;2024-03-07T04:04:52;2.60;99.90
54680;DHT22;40578;53.178;5.846;2024-03-07T04:07:18;2.50;99.90
54680;DHT22;40578;53.178;5.846;2024-03-07T04:09:45;2.50;99.90
54680;DHT22;40578;53.178;5.846;2024-03-07T04:12:12;2.40;99.90
54680;DHT22;40578;53.178;5.846;2024-03-07T04:14:39;2.40;99.90
54680;DHT22;40578;53.178;5.846;2024-03-07T04:17:06;2.40;99.90
54680;DHT22;40578;53.178;5.846;2024-03-07T04:19:35;2.50;99.90
54680;DHT22;40578;53.178;5.846;2024-03-07T04:22:01;2.30;99.90
54680;DHT22;40578;53.178;5.846;2024-03-07T04:24:29;2.30;99.90
54680;DHT22;40578;53.178;5.846;2024-03-07T04:26:57;2.30;99.90
54680;DHT22;40578;53.178;5.846;2024-03-07T04:29:22;2.30;99.90
54680;DHT22;40578;53.178;5.846;2024-03-07T04:31:48;2.40;99.90
54680;DHT22;40578;53.178;5.846;2024-03-07T04:34:13;2.80;99.90
54680;DHT22;40578;53.178;5.846;2024-03-07T04:36:39;2.20;99.90
54680;DHT22;40578;53.178;5.846;2024-03-07T04:39:05;2.30;99.90
54680;DHT22;40578;53.178;5.846;2024-03-07T04:41:30;2.20;99.90
54680;DHT22;40578;53.178;5.846;2024-03-07T04:43:56;2.40;99.90
54680;DHT22;40578;53.178;5.846;2024-03-07T04:46:22;2.20;99.90
54680;DHT22;40578;53.178;5.846;2024-03-07T04:48:47;2.10;99.90
54680;DHT22;40578;53.178;5.846;2024-03-07T04:51:14;2.10;99.90
54680;DHT22;40578;53.178;5.846;2024-03-07T04:53:39;2.20;99.90
54680;DHT22;40578;53.178;5.846;2024-03-07T04:56:07;2.10;99.90
54680;DHT22;40578;53.178;5.846;2024-03-07T04:58:35;2.30;99.90
54680;DHT22;40578;53.178;5.846;2024-03-07T05:01:01;2.20;99.90
54680;DHT22;40578;53.178;5.846;2024-03-07T05:03:29;2.10;99.90
54680;DHT22;40578;53.178;5.846;2024-03-07T05:05:55;2.10;99.90
54680;DHT22;40578;53.178;5.846;2024-03-07T05:08:21;2.20;99.90
54680;DHT22;40578;53.178;5.846;2024-03-07T05:10:47;2.50;99.90
54680;DHT22;40578;53.178;5.846;2024-03-07T05:13:12;2.10;99.90
54680;DHT22;40578;53.178;5.846;2024-03-07T05:15:38;2.10;99.90
54680;DHT22;40578;53.178;5.846;2024-03-07T05:18:04;2.10;99.90
54680;DHT22;40578;53.178;5.846;2024-03-07T05:20:30;3.60;99.90
54680;DHT22;40578;53.178;5.846;2024-03-07T05:22:56;2.10;99.90
54680;DHT22;40578;53.178;5.846;2024-03-07T05:25:24;2.10;99.90
54680;DHT22;40578;53.178;5.846;2024-03-07T05:27:50;2.00;99.90
54680;DHT22;40578;53.178;5.846;2024-03-07T05:30:16;2.10;99.90
54680;DHT22;40578;53.178;5.846;2024-03-07T05:32:42;2.00;99.90
54680;DHT22;40578;53.178;5.846;2024-03-07T05:35:08;2.10;99.90
54680;DHT22;40578;53.178;5.846;2024-03-07T05:37:34;2.00;99.90
54680;DHT22;40578;53.178;5.846;2024-03-07T05:40:00;2.30;99.90
54680;DHT22;40578;53.178;5.846;2024-03-07T05:42:28;2.10;99.90
54680;DHT22;40578;53.178;5.846;2024-03-07T05:44:55;2.10;99.90
54680;DHT22;40578;53.178;5.846;2024-03-07T05:47:20;2.20;99.90
54680;DHT22;40578;53.178;5.846;2024-03-07T05:49:47;2.00;99.90
54680;DHT22;40578;53.178;5.846;2024-03-07T05:52:12;2.00;99.90
54680;DHT22;40578;53.178;5.846;2024-03-07T05:54:38;2.10;99.90
54680;DHT22;40578;53.178;5.846;2024-03-07T05:57:04;2.00;99.90
54680;DHT22;40578;53.178;5.846;2024-03-07T05:59:32;2.10;99.90
54680;DHT22;40578;53.178;5.846;2024-03-07T06:01:58;1.90;99.90
54680;DHT22;40578;53.178;5.846;2024-03-07T06:04:23;2.00;99.90
54680;DHT22;40578;53.178;5.846;2024-03-07T06:06:49;2.00;99.90
54680;DHT22;40578;53.178;5.846;2024-03-07T06:09:15;2.00;99.90
54680;DHT22;40578;53.178;5.846;2024-03-07T06:11:46;1.90;99.90
54680;DHT22;40578;53.178;5.846;2024-03-07T06:14:12;2.00;99.90
54680;DHT22;40578;53.178;5.846;2024-03-07T06:16:39;1.90;99.90
54680;DHT22;40578;53.178;5.846;2024-03-07T06:19:06;1.90;99.90
54680;DHT22;40578;53.178;5.846;2024-03-07T06:21:36;2.20;99.90
54680;DHT22;40578;53.178;5.846;2024-03-07T06:24:03;1.90;99.90
54680;DHT22;40578;53.178;5.846;2024-03-07T06:26:30;1.90;99.90
54680;DHT22;40578;53.178;5.846;2024-03-07T06:29:34;2.00;99.90
54680;DHT22;40578;53.178;5.846;2024-03-07T06:32:00;1.90;99.90
54680;DHT22;40578;53.178;5.846;2024-03-07T06:34:25;2.00;99.90
54680;DHT22;40578;53.178;5.846;2024-03-07T06:36:52;2.10;99.90
54680;DHT22;40578;53.178;5.846;2024-03-07T06:39:20;2.20;99.90
54680;DHT22;40578;53.178;5.846;2024-03-07T06:41:47;2.20;99.90
54680;DHT22;40578;53.178;5.846;2024-03-07T06:44:13;2.10;99.90
54680;DHT22;40578;53.178;5.846;2024-03-07T06:46:38;2.10;99.90
54680;DHT22;40578;53.178;5.846;2024-03-07T06:49:04;2.30;99.90
54680;DHT22;40578;53.178;5.846;2024-03-07T06:51:35;2.10;99.90
54680;DHT22;40578;53.178;5.846;2024-03-07T06:54:01;2.30;99.90
54680;DHT22;40578;53.178;5.846;2024-03-07T06:56:27;2.20;99.90
54680;DHT22;40578;53.178;5.846;2024-03-07T06:58:52;2.50;99.90
54680;DHT22;40578;53.178;5.846;2024-03-07T07:01:18;2.40;99.90
54680;DHT22;40578;53.178;5.846;2024-03-07T07:03:45;2.50;99.90
54680;DHT22;40578;53.178;5.846;2024-03-07T07:06:11;2.50;99.90
54680;DHT22;40578;53.178;5.846;2024-03-07T07:08:37;2.70;99.90
54680;DHT22;40578;53.178;5.846;2024-03-07T07:11:03;2.50;99.90
54680;DHT22;40578;53.178;5.846;2024-03-07T07:13:32;2.60;99.90
54680;DHT22;40578;53.178;5.846;2024-03-07T07:15:58;2.60;99.90
54680;DHT22;40578;53.178;5.846;2024-03-07T07:18:23;2.80;99.90
54680;DHT22;40578;53.178;5.846;2024-03-07T07:20:49;2.60;99.90
54680;DHT22;40578;53.178;5.846;2024-03-07T07:23:18;3.10;99.90
54680;DHT22;40578;53.178;5.846;2024-03-07T07:25:43;3.10;99.90
54680;DHT22;40578;53.178;5.846;2024-03-07T07:28:09;2.90;99.90
54680;DHT22;40578;53.178;5.846;2024-03-07T07:30:36;3.20;99.90
54680;DHT22;40578;53.178;5.846;2024-03-07T07:33:02;3.10;99.90
54680;DHT22;40578;53.178;5.846;2024-03-07T07:35:28;3.20;99.90
54680;DHT22;40578;53.178;5.846;2024-03-07T07:37:54;3.30;99.90
54680;DHT22;40578;53.178;5.846;2024-03-07T07:40:21;3.30;99.90
54680;DHT22;40578;53.178;5.846;2024-03-07T07:42:51;3.30;99.90
54680;DHT22;40578;53.178;5.846;2024-03-07T07:45:19;3.50;99.90
54680;DHT22;40578;53.178;5.846;2024-03-07T07:47:47;4.20;99.90
54680;DHT22;40578;53.178;5.846;2024-03-07T07:50:16;3.70;99.90
54680;DHT22;40578;53.178;5.846;2024-03-07T07:52:52;4.90;99.90
54680;DHT22;40578;53.178;5.846;2024-03-07T07:55:28;3.80;99.90
54680;DHT22;40578;53.178;5.846;2024-03-07T07:57:59;4.00;99.90
54680;DHT22;40578;53.178;5.846;2024-03-07T08:00:27;4.10;99.90
54680;DHT22;40578;53.178;5.846;2024-03-07T08:02:58;4.30;99.90
54680;DHT22;40578;53.178;5.846;2024-03-07T08:05:26;4.20;99.90
54680;DHT22;40578;53.178;5.846;2024-03-07T08:07:54;4.10;99.90
54680;DHT22;40578;53.178;5.846;2024-03-07T08:10:26;5.00;99.90
54680;DHT22;40578;53.178;5.846;2024-03-07T08:12:57;4.10;99.90
54680;DHT22;40578;53.178;5.846;2024-03-07T08:15:25;4.20;99.90
54680;DHT22;40578;53.178;5.846;2024-03-07T08:17:51;4.30;99.90
54680;DHT22;40578;53.178;5.846;2024-03-07T08:20:19;4.20;99.90
54680;DHT22;40578;53.178;5.846;2024-03-07T08:22:46;4.30;99.90
54680;DHT22;40578;53.178;5.846;2024-03-07T08:25:13;4.50;99.90
54680;DHT22;40578;53.178;5.846;2024-03-07T08:27:41;4.20;99.90
54680;DHT22;40578;53.178;5.846;2024-03-07T08:30:09;3.20;99.90
54680;DHT22;40578;53.178;5.846;2024-03-07T08:35:10;4.00;99.90
54680;DHT22;40578;53.178;5.846;2024-03-07T08:37:40;4.10;99.90
54680;DHT22;40578;53.178;5.846;2024-03-07T08:40:07;4.00;99.90
54680;DHT22;40578;53.178;5.846;2024-03-07T08:42:36;3.90;99.90
54680;DHT22;40578;53.178;5.846;2024-03-07T08:45:02;3.60;99.90
54680;DHT22;40578;53.178;5.846;2024-03-07T08:47:35;3.50;99.90
54680;DHT22;40578;53.178;5.846;2024-03-07T08:50:05;3.50;99.90
54680;DHT22;40578;53.178;5.846;2024-03-07T08:52:34;3.60;99.90
54680;DHT22;40578;53.178;5.846;2024-03-07T08:55:03;3.30;99.90
54680;DHT22;40578;53.178;5.846;2024-03-07T08:57:29;3.30;99.90
54680;DHT22;40578;53.178;5.846;2024-03-07T08:59:55;3.30;99.90
54680;DHT22;40578;53.178;5.846;2024-03-07T09:02:21;3.20;99.90
54680;DHT22;40578;53.178;5.846;2024-03-07T09:04:47;3.20;99.90
54680;DHT22;40578;53.178;5.846;2024-03-07T09:07:13;3.10;99.90
54680;DHT22;40578;53.178;5.846;2024-03-07T09:09:43;3.20;99.90
54680;DHT22;40578;53.178;5.846;2024-03-07T09:12:10;3.10;99.90
54680;DHT22;40578;53.178;5.846;2024-03-07T09:14:36;3.30;99.90
54680;DHT22;40578;53.178;5.846;2024-03-07T09:17:03;3.40;99.90
54680;DHT22;40578;53.178;5.846;2024-03-07T09:19:30;3.20;99.90
54680;DHT22;40578;53.178;5.846;2024-03-07T09:21:56;3.40;99.90
54680;DHT22;40578;53.178;5.846;2024-03-07T09:24:23;3.70;99.90
54680;DHT22;40578;53.178;5.846;2024-03-07T09:26:49;3.30;99.90
54680;DHT22;40578;53.178;5.846;2024-03-07T09:29:16;3.50;99.90
54680;DHT22;40578;53.178;5.846;2024-03-07T09:31:41;3.40;99.90
54680;DHT22;40578;53.178;5.846;2024-03-07T09:34:07;3.60;99.90
54680;DHT22;40578;53.178;5.846;2024-03-07T09:36:34;3.90;99.90
54680;DHT22;40578;53.178;5.846;2024-03-07T09:39:00;3.70;99.90
54680;DHT22;40578;53.178;5.846;2024-03-07T09:41:26;3.70;99.90
54680;DHT22;40578;53.178;5.846;2024-03-07T09:43:52;3.70;99.90
54680;DHT22;40578;53.178;5.846;2024-03-07T09:46:22;3.80;99.90
54680;DHT22;40578;53.178;5.846;2024-03-07T09:48:50;3.70;99.90
54680;DHT22;40578;53.178;5.846;2024-03-07T09:51:20;3.70;99.90
54680;DHT22;40578;53.178;5.846;2024-03-07T09:53:50;3.80;99.90
54680;DHT22;40578;53.178;5.846;2024-03-07T09:56:20;4.10;99.90
54680;DHT22;40578;53.178;5.846;2024-03-07T09:58:54;3.50;99.90
54680;DHT22;40578;53.178;5.846;2024-03-07T10:01:21;3.50;99.90
54680;DHT22;40578;53.178;5.846;2024-03-07T10:03:50;3.50;99.90
54680;DHT22;40578;53.178;5.846;2024-03-07T10:06:19;3.60;99.90
54680;DHT22;40578;53.178;5.846;2024-03-07T10:08:47;3.60;99.90
54680;DHT22;40578;53.178;5.846;2024-03-07T10:11:13;4.20;99.90
54680;DHT22;40578;53.178;5.846;2024-03-07T10:13:40;3.60;99.90
54680;DHT22;40578;53.178;5.846;2024-03-07T10:16:07;3.60;99.90
54680;DHT22;40578;53.178;5.846;2024-03-07T10:18:40;3.70;99.90
54680;DHT22;40578;53.178;5.846;2024-03-07T10:21:06;3.70;99.90
54680;DHT22;40578;53.178;5.846;2024-03-07T10:23:32;3.70;99.90
54680;DHT22;40578;53.178;5.846;2024-03-07T10:25:59;3.70;99.90
54680;DHT22;40578;53.178;5.846;2024-03-07T10:28:26;3.90;99.90
54680;DHT22;40578;53.178;5.846;2024-03-07T10:30:53;3.70;99.90
54680;DHT22;40578;53.178;5.846;2024-03-07T10:33:19;3.70;99.90
54680;DHT22;40578;53.178;5.846;2024-03-07T10:35:49;3.70;99.90
54680;DHT22;40578;53.178;5.846;2024-03-07T10:38:14;3.80;99.90
54680;DHT22;40578;53.178;5.846;2024-03-07T10:40:40;3.70;99.90
54680;DHT22;40578;53.178;5.846;2024-03-07T10:43:10;3.80;99.90
54680;DHT22;40578;53.178;5.846;2024-03-07T10:45:47;4.60;99.90
54680;DHT22;40578;53.178;5.846;2024-03-07T10:48:14;3.70;99.90
54680;DHT22;40578;53.178;5.846;2024-03-07T10:54:29;3.70;99.90
54680;DHT22;40578;53.178;5.846;2024-03-07T10:57:31;3.70;99.90
54680;DHT22;40578;53.178;5.846;2024-03-07T11:00:03;3.70;99.90
54680;DHT22;40578;53.178;5.846;2024-03-07T11:02:50;3.60;99.90
54680;DHT22;40578;53.178;5.846;2024-03-07T11:05:20;3.70;99.90
54680;DHT22;40578;53.178;5.846;2024-03-07T11:07:50;3.70;99.90
54680;DHT22;40578;53.178;5.846;2024-03-07T11:10:16;3.70;99.90
54680;DHT22;40578;53.178;5.846;2024-03-07T11:12:44;3.60;99.90
54680;DHT22;40578;53.178;5.846;2024-03-07T11:15:12;3.90;99.90
54680;DHT22;40578;53.178;5.846;2024-03-07T11:17:49;3.70;99.90
54680;DHT22;40578;53.178;5.846;2024-03-07T11:20:23;3.80;99.90
54680;DHT22;40578;53.178;5.846;2024-03-07T11:22:49;3.90;99.90
54680;DHT22;40578;53.178;5.846;2024-03-07T11:25:19;3.90;99.90
54680;DHT22;40578;53.178;5.846;2024-03-07T11:27:58;3.90;99.90
54680;DHT22;40578;53.178;5.846;2024-03-07T11:30:25;3.90;99.90
54680;DHT22;40578;53.178;5.846;2024-03-07T11:32:52;4.10;99.90
54680;DHT22;40578;53.178;5.846;2024-03-07T11:35:33;4.20;99.90
54680;DHT22;40578;53.178;5.846;2024-03-07T11:38:01;4.00;99.90
54680;DHT22;40578;53.178;5.846;2024-03-07T11:42:55;4.20;99.90
54680;DHT22;40578;53.178;5.846;2024-03-07T11:45:26;4.20;99.90
54680;DHT22;40578;53.178;5.846;2024-03-07T11:47:54;4.40;99.90
54680;DHT22;40578;53.178;5.846;2024-03-07T11:50:29;4.50;99.90
54680;DHT22;40578;53.178;5.846;2024-03-07T11:53:00;4.60;99.90
54680;DHT22;40578;53.178;5.846;2024-03-07T11:55:26;4.50;99.90
54680;DHT22;40578;53.178;5.846;2024-03-07T11:57:54;4.50;99.90
54680;DHT22;40578;53.178;5.846;2024-03-07T12:00:20;4.50;99.90
54680;DHT22;40578;53.178;5.846;2024-03-07T12:02:49;4.30;99.90
54680;DHT22;40578;53.178;5.846;2024-03-07T12:05:15;4.40;99.90
54680;DHT22;40578;53.178;5.846;2024-03-07T12:07:42;4.40;99.90
54680;DHT22;40578;53.178;5.846;2024-03-07T12:10:09;4.40;99.90
54680;DHT22;40578;53.178;5.846;2024-03-07T12:12:35;4.50;99.90
54680;DHT22;40578;53.178;5.846;2024-03-07T12:15:07;5.20;99.90
54680;DHT22;40578;53.178;5.846;2024-03-07T12:17:46;4.50;99.90
54680;DHT22;40578;53.178;5.846;2024-03-07T12:20:15;4.50;99.90
54680;DHT22;40578;53.178;5.846;2024-03-07T12:22:55;4.40;99.90
54680;DHT22;40578;53.178;5.846;2024-03-07T12:25:22;4.40;99.90
54680;DHT22;40578;53.178;5.846;2024-03-07T12:30:29;4.60;99.90
54680;DHT22;40578;53.178;5.846;2024-03-07T12:32:59;4.80;99.90
54680;DHT22;40578;53.178;5.846;2024-03-07T12:35:25;4.80;99.90
54680;DHT22;40578;53.178;5.846;2024-03-07T12:37:51;4.90;99.90
54680;DHT22;40578;53.178;5.846;2024-03-07T12:40:20;4.90;99.90
54680;DHT22;40578;53.178;5.846;2024-03-07T12:42:55;4.80;99.90
54680;DHT22;40578;53.178;5.846;2024-03-07T12:45:20;4.80;99.90
54680;DHT22;40578;53.178;5.846;2024-03-07T12:47:52;4.90;99.90
54680;DHT22;40578;53.178;5.846;2024-03-07T12:50:20;4.80;99.90
54680;DHT22;40578;53.178;5.846;2024-03-07T12:52:49;4.80;99.90
54680;DHT22;40578;53.178;5.846;2024-03-07T12:55:18;4.80;99.90
54680;DHT22;40578;53.178;5.846;2024-03-07T12:57:44;4.80;99.90
54680;DHT22;40578;53.178;5.846;2024-03-07T13:00:11;4.90;99.90
54680;DHT22;40578;53.178;5.846;2024-03-07T13:02:45;4.90;99.90
54680;DHT22;40578;53.178;5.846;2024-03-07T13:05:11;4.90;99.90
54680;DHT22;40578;53.178;5.846;2024-03-07T13:07:48;5.00;99.90
54680;DHT22;40578;53.178;5.846;2024-03-07T13:10:15;5.00;99.90
54680;DHT22;40578;53.178;5.846;2024-03-07T13:12:44;5.10;99.90
54680;DHT22;40578;53.178;5.846;2024-03-07T13:15:11;5.20;99.90
54680;DHT22;40578;53.178;5.846;2024-03-07T13:17:37;5.30;99.90
54680;DHT22;40578;53.178;5.846;2024-03-07T13:20:03;5.30;99.90
54680;DHT22;40578;53.178;5.846;2024-03-07T13:22:38;5.30;99.90
54680;DHT22;40578;53.178;5.846;2024-03-07T13:25:03;5.20;99.90
54680;DHT22;40578;53.178;5.846;2024-03-07T13:27:40;5.30;99.90
54680;DHT22;40578;53.178;5.846;2024-03-07T13:30:07;5.30;99.90
54680;DHT22;40578;53.178;5.846;2024-03-07T13:32:33;5.30;99.90
54680;DHT22;40578;53.178;5.846;2024-03-07T13:34:58;5.40;99.90
54680;DHT22;40578;53.178;5.846;2024-03-07T13:37:27;5.40;99.90
54680;DHT22;40578;53.178;5.846;2024-03-07T13:39:52;5.40;99.90
54680;DHT22;40578;53.178;5.846;2024-03-07T13:42:18;5.50;99.90
54680;DHT22;40578;53.178;5.846;2024-03-07T13:44:43;5.50;99.90
54680;DHT22;40578;53.178;5.846;2024-03-07T13:47:10;5.50;99.90
54680;DHT22;40578;53.178;5.846;2024-03-07T13:49:36;5.50;99.90
54680;DHT22;40578;53.178;5.846;2024-03-07T13:52:04;5.50;99.90
54680;DHT22;40578;53.178;5.846;2024-03-07T13:54:36;5.50;99.90
54680;DHT22;40578;53.178;5.846;2024-03-07T13:57:19;5.50;99.90
54680;DHT22;40578;53.178;5.846;2024-03-07T14:26:01;5.80;99.90
54680;DHT22;40578;53.178;5.846;2024-03-07T14:28:54;5.80;99.90
54680;DHT22;40578;53.178;5.846;2024-03-07T14:31:26;5.80;99.90
54680;DHT22;40578;53.178;5.846;2024-03-07T14:34:20;5.90;99.90
54680;DHT22;40578;53.178;5.846;2024-03-07T14:36:53;5.90;99.90
54680;DHT22;40578;53.178;5.846;2024-03-07T14:39:22;6.00;99.90
54680;DHT22;40578;53.178;5.846;2024-03-07T14:42:12;5.90;99.90
54680;DHT22;40578;53.178;5.846;2024-03-07T14:44:42;5.80;99.90
54680;DHT22;40578;53.178;5.846;2024-03-07T14:47:09;5.90;99.90
54680;DHT22;40578;53.178;5.846;2024-03-07T14:49:38;5.90;99.90
54680;DHT22;40578;53.178;5.846;2024-03-07T14:52:05;5.90;99.90
54680;DHT22;40578;53.178;5.846;2024-03-07T14:54:39;5.90;99.90
54680;DHT22;40578;53.178;5.846;2024-03-07T14:57:07;5.80;99.90
54680;DHT22;40578;53.178;5.846;2024-03-07T14:59:36;5.90;99.90
54680;DHT22;40578;53.178;5.846;2024-03-07T15:02:02;5.80;99.90
54680;DHT22;40578;53.178;5.846;2024-03-07T15:04:29;5.90;99.90
54680;DHT22;40578;53.178;5.846;2024-03-07T15:06:57;5.90;99.90
54680;DHT22;40578;53.178;5.846;2024-03-07T15:09:23;5.80;99.90
54680;DHT22;40578;53.178;5.846;2024-03-07T15:11:49;5.80;99.90
54680;DHT22;40578;53.178;5.846;2024-03-07T15:14:15;5.70;99.90
54680;DHT22;40578;53.178;5.846;2024-03-07T15:16:41;5.80;99.90
54680;DHT22;40578;53.178;5.846;2024-03-07T15:19:09;5.80;99.90
54680;DHT22;40578;53.178;5.846;2024-03-07T15:21:36;5.90;99.90
54680;DHT22;40578;53.178;5.846;2024-03-07T15:24:05;5.80;99.90
54680;DHT22;40578;53.178;5.846;2024-03-07T15:26:31;5.80;99.90
54680;DHT22;40578;53.178;5.846;2024-03-07T15:28:57;5.90;99.90
54680;DHT22;40578;53.178;5.846;2024-03-07T15:31:23;5.90;99.90
54680;DHT22;40578;53.178;5.846;2024-03-07T15:33:50;5.80;99.90
54680;DHT22;40578;53.178;5.846;2024-03-07T15:36:25;5.80;99.90
54680;DHT22;40578;53.178;5.846;2024-03-07T15:38:54;5.90;99.90
54680;DHT22;40578;53.178;5.846;2024-03-07T15:41:19;5.90;99.90
54680;DHT22;40578;53.178;5.846;2024-03-07T15:43:47;5.80;99.90
54680;DHT22;40578;53.178;5.846;2024-03-07T15:46:14;5.90;99.90
54680;DHT22;40578;53.178;5.846;2024-03-07T15:48:46;5.90;99.90
54680;DHT22;40578;53.178;5.846;2024-03-07T15:51:15;5.80;99.90
54680;DHT22;40578;53.178;5.846;2024-03-07T15:53:40;5.80;99.90
54680;DHT22;40578;53.178;5.846;2024-03-07T15:56:07;5.90;99.90
54680;DHT22;40578;53.178;5.846;2024-03-07T15:58:33;5.90;99.90
54680;DHT22;40578;53.178;5.846;2024-03-07T16:00:59;6.60;99.90
54680;DHT22;40578;53.178;5.846;2024-03-07T16:03:25;5.90;99.90
54680;DHT22;40578;53.178;5.846;2024-03-07T16:05:51;6.00;99.90
54680;DHT22;40578;53.178;5.846;2024-03-07T16:08:17;5.80;99.90
54680;DHT22;40578;53.178;5.846;2024-03-07T16:10:43;6.00;99.90
54680;DHT22;40578;53.178;5.846;2024-03-07T16:13:12;5.80;99.90
54680;DHT22;40578;53.178;5.846;2024-03-07T16:15:44;5.90;99.90
54680;DHT22;40578;53.178;5.846;2024-03-07T16:18:11;5.90;99.90
54680;DHT22;40578;53.178;5.846;2024-03-07T16:20:37;5.90;99.90
54680;DHT22;40578;53.178;5.846;2024-03-07T16:23:03;5.80;99.90
54680;DHT22;40578;53.178;5.846;2024-03-07T16:25:35;5.80;99.90
54680;DHT22;40578;53.178;5.846;2024-03-07T16:28:04;5.90;99.90